createdAt,value
2022-09-03T00:02:06.382Z,5.80
2022-09-03T00:05:38.354Z,4.90
2022-09-03T00:09:05.067Z,3.75
2022-09-03T00:12:33.219Z,3.20
2022-09-03T00:15:59.837Z,2.65
2022-09-03T00:19:25.608Z,3.33
2022-09-03T00:22:51.282Z,2.67
2022-09-03T00:26:27.229Z,3.50
2022-09-03T00:29:53.513Z,4.03
2022-09-03T00:33:22.044Z,2.05
2022-09-03T00:36:45.995Z,2.78
2022-09-03T00:40:22.286Z,5.25
2022-09-03T00:44:05.119Z,3.20
2022-09-03T00:47:35.501Z,3.83
2022-09-03T00:51:11.919Z,4.60
2022-09-03T00:54:42.886Z,3.25
2022-09-03T00:58:29.845Z,2.22
2022-09-03T01:02:03.866Z,3.72
2022-09-03T01:05:52.490Z,4.20
2022-09-03T01:09:26.727Z,4.10
2022-09-03T01:12:56.948Z,4.20
2022-09-03T01:16:29.074Z,3.97
2022-09-03T01:20:13.836Z,3.60
2022-09-03T01:23:53.575Z,6.32
2022-09-03T01:27:33.323Z,3.58
2022-09-03T01:31:03.152Z,5.10
2022-09-03T01:34:39.346Z,3.05
2022-09-03T01:38:17.258Z,3.05
2022-09-03T01:42:06.706Z,3.58
2022-09-03T01:45:45.191Z,4.32
2022-09-03T01:49:22.664Z,3.10
2022-09-03T01:52:52.582Z,3.50
2022-09-03T01:56:28.804Z,2.85
2022-09-03T01:59:58.972Z,3.58
2022-09-03T02:03:21.591Z,3.40
2022-09-03T02:06:48.979Z,5.85
2022-09-03T02:10:15.605Z,4.15
2022-09-03T02:13:40.654Z,4.70
2022-09-03T02:17:03.626Z,3.10
2022-09-03T02:20:28.401Z,3.47
2022-09-03T02:23:52.749Z,2.72
2022-09-03T02:27:14.706Z,2.80
2022-09-03T02:30:37.392Z,5.07
2022-09-03T02:34:01.180Z,3.20
2022-09-03T02:37:23.738Z,3.17
2022-09-03T02:40:47.460Z,3.25
2022-09-03T02:44:15.082Z,3.00
2022-09-03T02:47:38.953Z,2.90
2022-09-03T02:51:01.094Z,3.40
2022-09-03T02:54:22.825Z,3.53
2022-09-03T02:57:46.610Z,2.35
2022-09-03T03:01:08.757Z,2.22
2022-09-03T03:04:31.851Z,5.15
2022-09-03T03:07:58.648Z,3.95
2022-09-03T03:11:22.319Z,3.20
2022-09-03T03:14:45.425Z,3.72
2022-09-03T03:18:07.693Z,3.40
2022-09-03T03:21:30.927Z,2.70
2022-09-03T03:24:52.852Z,2.25
2022-09-03T03:28:15.301Z,4.80
2022-09-03T03:31:38.620Z,2.90
2022-09-03T03:35:00.633Z,3.60
2022-09-03T03:38:22.763Z,2.78
2022-09-03T03:41:44.748Z,3.30
2022-09-03T03:45:08.228Z,3.03
2022-09-03T03:48:31.498Z,4.07
2022-09-03T03:51:53.518Z,2.20
2022-09-03T03:55:15.915Z,4.57
2022-09-03T03:58:39.064Z,3.03
2022-09-03T04:02:01.009Z,3.97
2022-09-03T04:05:24.348Z,2.83
2022-09-03T04:08:48.250Z,2.28
2022-09-03T04:12:11.326Z,2.85
2022-09-03T04:15:33.447Z,2.72
2022-09-03T04:18:56.733Z,2.95
2022-09-03T04:22:20.796Z,4.65
2022-09-03T04:25:43.631Z,5.03
2022-09-03T04:29:07.463Z,4.43
2022-09-03T04:32:46.975Z,3.95
2022-09-03T04:36:11.026Z,3.08
2022-09-03T04:39:34.320Z,2.60
2022-09-03T04:42:59.327Z,3.08
2022-09-03T04:46:22.973Z,4.88
2022-09-03T04:49:45.027Z,3.65
2022-09-03T04:53:08.275Z,4.18
2022-09-03T04:56:32.806Z,4.85
2022-09-03T04:59:55.443Z,3.13
2022-09-03T05:03:17.791Z,3.67
2022-09-03T05:06:39.626Z,5.40
2022-09-03T05:10:02.666Z,3.15
2022-09-03T05:13:25.909Z,4.10
2022-09-03T05:16:53.058Z,5.78
2022-09-03T05:20:15.218Z,3.88
2022-09-03T05:23:37.970Z,3.63
2022-09-03T05:26:59.650Z,3.92
2022-09-03T05:30:23.641Z,2.70
2022-09-03T05:33:47.569Z,3.63
2022-09-03T05:37:09.302Z,2.40
2022-09-03T05:40:31.623Z,3.33
2022-09-03T05:43:55.968Z,2.42
2022-09-03T05:47:19.090Z,3.60
2022-09-03T05:50:41.280Z,4.80
2022-09-03T05:54:03.894Z,5.15
2022-09-03T05:57:25.672Z,5.55
2022-09-03T06:00:47.981Z,5.43
2022-09-03T06:04:13.466Z,2.55
2022-09-03T06:07:35.618Z,2.35
2022-09-03T06:10:59.433Z,2.78
2022-09-03T06:14:22.120Z,4.65
2022-09-03T06:17:44.150Z,5.35
2022-09-03T06:21:09.470Z,2.95
2022-09-03T06:24:31.130Z,3.25
2022-09-03T06:27:54.746Z,3.58
2022-09-03T06:31:18.727Z,3.03
2022-09-03T06:34:40.381Z,3.83
2022-09-03T06:38:03.977Z,4.35
2022-09-03T06:41:27.640Z,4.15
2022-09-03T06:44:51.334Z,3.33
2022-09-03T06:48:12.973Z,2.78
2022-09-03T06:51:36.050Z,4.78
2022-09-03T06:54:59.480Z,4.57
2022-09-03T06:58:22.189Z,3.83
2022-09-03T07:01:46.311Z,3.42
2022-09-03T07:05:09.090Z,7.60
2022-09-03T07:08:32.862Z,3.17
2022-09-03T07:11:56.556Z,4.80
2022-09-03T07:15:18.303Z,3.78
2022-09-03T07:18:41.177Z,3.38
2022-09-03T07:22:03.054Z,3.72
2022-09-03T07:25:26.194Z,2.55
2022-09-03T07:28:50.341Z,5.90
2022-09-03T07:32:12.265Z,3.42
2022-09-03T07:35:37.805Z,3.42
2022-09-03T07:39:00.714Z,2.85
2022-09-03T07:42:22.453Z,4.07
2022-09-03T07:45:51.827Z,2.33
2022-09-03T07:49:13.894Z,3.15
2022-09-03T07:52:35.526Z,2.20
2022-09-03T07:56:03.049Z,5.20
2022-09-03T07:59:25.017Z,3.05
2022-09-03T08:02:48.030Z,3.60
2022-09-03T08:06:12.382Z,3.38
2022-09-03T08:09:34.337Z,3.05
2022-09-03T08:12:56.221Z,3.20
2022-09-03T08:16:19.541Z,5.55
2022-09-03T08:19:43.745Z,3.33
2022-09-03T08:23:05.839Z,4.28
2022-09-03T08:26:27.893Z,5.65
2022-09-03T08:29:49.647Z,3.67
2022-09-03T08:33:11.608Z,4.40
2022-09-03T08:36:36.836Z,4.53
2022-09-03T08:39:59.056Z,4.63
2022-09-03T08:43:20.765Z,4.32
2022-09-03T08:46:52.804Z,4.45
2022-09-03T08:50:22.017Z,3.88
2022-09-03T08:53:49.215Z,3.78
2022-09-03T08:57:11.509Z,5.80
2022-09-03T09:00:43.663Z,3.60
2022-09-03T09:04:20.278Z,2.65
2022-09-03T09:07:48.987Z,4.60
2022-09-03T09:11:28.908Z,2.33
2022-09-03T09:15:00.437Z,1.65
2022-09-03T09:18:31.339Z,4.70
2022-09-03T09:21:58.354Z,3.85
2022-09-03T09:25:22.709Z,7.10
2022-09-03T09:28:47.992Z,6.80
2022-09-03T09:32:16.775Z,4.47
2022-09-03T09:35:42.480Z,14.63
2022-09-03T09:39:10.077Z,3.90
2022-09-03T09:42:35.036Z,2.70
2022-09-03T09:46:08.646Z,1.98
2022-09-03T09:49:33.399Z,2.65
2022-09-03T09:53:06.780Z,3.47
2022-09-03T09:56:29.308Z,2.85
2022-09-03T09:59:52.050Z,9.02
2022-09-03T10:03:15.959Z,9.50
2022-09-03T10:06:57.324Z,4.83
2022-09-03T10:10:22.283Z,4.72
2022-09-03T10:13:48.075Z,4.03
2022-09-03T10:17:17.008Z,10.75
2022-09-03T10:20:52.362Z,2.30
2022-09-03T10:24:53.125Z,2.38
2022-09-03T10:28:15.024Z,9.50
2022-09-03T10:31:45.483Z,2.53
2022-09-03T10:35:14.629Z,2.90
2022-09-03T10:38:38.667Z,3.15
2022-09-03T10:42:14.150Z,2.17
2022-09-03T10:45:43.507Z,1.95
2022-09-03T10:49:31.417Z,5.68
2022-09-03T10:53:08.718Z,4.10
2022-09-03T10:56:41.322Z,3.10
2022-09-03T11:00:09.840Z,4.05
2022-09-03T11:03:45.063Z,2.45
2022-09-03T11:07:11.165Z,1.52
2022-09-03T11:10:34.688Z,2.00
2022-09-03T11:14:04.895Z,4.50
2022-09-03T11:17:32.165Z,3.28
2022-09-03T11:21:03.162Z,3.85
2022-09-03T11:24:27.963Z,5.35
2022-09-03T11:28:00.669Z,2.95
2022-09-03T11:31:32.747Z,3.60
2022-09-03T11:34:56.778Z,1.52
2022-09-03T11:38:27.385Z,2.53
2022-09-03T11:42:04.555Z,3.03
2022-09-03T11:45:37.507Z,2.03
2022-09-03T11:49:11.970Z,3.10
2022-09-03T11:52:40.345Z,5.85
2022-09-03T11:56:14.913Z,4.25
2022-09-03T11:59:36.786Z,2.78
2022-09-03T12:03:04.303Z,7.38
2022-09-03T12:06:58.805Z,3.45
2022-09-03T12:10:43.896Z,3.63
2022-09-03T12:14:14.316Z,1.88
2022-09-03T12:17:49.864Z,2.15
2022-09-03T12:21:13.046Z,1.10
2022-09-03T12:24:38.414Z,1.65
2022-09-03T12:28:04.281Z,4.18
2022-09-03T12:31:29.781Z,3.65
2022-09-03T12:34:51.699Z,4.50
2022-09-03T12:38:18.462Z,2.97
2022-09-03T12:41:57.318Z,2.72
2022-09-03T12:45:23.072Z,3.88
2022-09-03T12:52:41.131Z,3.90
2022-09-03T12:56:04.372Z,7.85
2022-09-03T12:59:30.856Z,5.53
2022-09-03T13:03:00.810Z,2.85
2022-09-03T13:06:26.018Z,1.60
2022-09-03T13:09:48.015Z,2.00
2022-09-03T13:13:22.342Z,3.53
2022-09-03T13:17:11.094Z,2.58
2022-09-03T13:20:38.789Z,1.63
2022-09-03T13:24:17.393Z,4.20
2022-09-03T13:27:46.104Z,1.63
2022-09-03T13:31:20.684Z,1.90
2022-09-03T13:34:50.525Z,2.15
2022-09-03T13:38:28.819Z,3.90
2022-09-03T13:41:56.074Z,2.10
2022-09-03T13:45:30.242Z,3.53
2022-09-03T13:49:16.225Z,1.80
2022-09-03T13:52:43.506Z,3.47
2022-09-03T13:56:17.515Z,2.85
2022-09-03T13:59:51.207Z,6.00
2022-09-03T14:03:20.338Z,2.88
2022-09-03T14:06:45.066Z,4.55
2022-09-03T14:10:22.745Z,1.65
2022-09-03T14:13:57.682Z,2.47
2022-09-03T14:17:32.353Z,3.60
2022-09-03T14:20:59.903Z,3.90
2022-09-03T14:24:25.150Z,1.60
2022-09-03T14:27:49.414Z,1.98
2022-09-03T14:31:22.236Z,2.75
2022-09-03T14:35:06.941Z,3.28
2022-09-03T14:39:07.818Z,3.90
2022-09-03T14:42:56.913Z,2.90
2022-09-03T14:46:34.110Z,2.70
2022-09-03T14:50:09.246Z,5.55
2022-09-03T14:54:03.235Z,1.63
2022-09-03T14:57:43.354Z,4.97
2022-09-03T15:01:13.162Z,4.72
2022-09-03T15:04:51.222Z,5.35
2022-09-03T15:08:25.406Z,3.47
2022-09-03T15:11:53.111Z,4.15
2022-09-03T15:15:21.888Z,4.63
2022-09-03T15:19:04.863Z,5.22
2022-09-03T15:22:49.783Z,2.60
2022-09-03T15:26:31.423Z,2.05
2022-09-03T15:30:03.055Z,4.50
2022-09-03T15:33:36.117Z,4.65
2022-09-03T15:37:07.269Z,4.55
2022-09-03T15:40:32.310Z,4.53
2022-09-03T15:44:00.370Z,1.95
2022-09-03T15:47:51.049Z,2.50
2022-09-03T15:51:19.961Z,3.65
2022-09-03T15:54:53.862Z,5.53
2022-09-03T15:58:25.305Z,3.40
2022-09-03T16:01:54.119Z,2.25
2022-09-03T16:05:20.705Z,5.95
2022-09-03T16:08:48.624Z,6.43
2022-09-03T16:12:25.754Z,3.35
2022-09-03T16:15:51.880Z,3.50
2022-09-03T16:19:23.353Z,3.78
2022-09-03T16:22:50.365Z,3.47
2022-09-03T16:26:17.430Z,2.05
2022-09-03T16:29:41.036Z,3.67
2022-09-03T16:33:14.461Z,4.38
2022-09-03T16:36:45.761Z,2.75
2022-09-03T16:40:24.462Z,5.05
2022-09-03T16:44:04.120Z,4.10
2022-09-03T16:47:42.443Z,4.82
2022-09-03T16:51:14.184Z,6.40
2022-09-03T16:54:55.903Z,9.50
2022-09-03T16:58:26.854Z,7.35
2022-09-03T17:02:02.549Z,4.35
2022-09-03T17:05:54.971Z,7.93
2022-09-03T17:09:28.421Z,5.90
2022-09-03T17:13:03.375Z,4.88
2022-09-03T17:16:37.420Z,3.88
2022-09-03T17:20:07.048Z,4.07
2022-09-03T17:24:02.456Z,4.78
2022-09-03T17:28:00.037Z,7.30
2022-09-03T17:31:41.085Z,5.88
2022-09-03T17:35:12.411Z,5.28
2022-09-03T17:38:53.483Z,7.78
2022-09-03T17:42:20.448Z,14.63
2022-09-03T17:45:48.858Z,11.07
2022-09-03T17:49:22.127Z,11.15
2022-09-03T17:52:49.607Z,18.45
2022-09-03T17:56:22.444Z,23.75
2022-09-03T17:59:50.686Z,14.93
2022-09-03T18:03:21.641Z,11.13
2022-09-03T18:06:59.217Z,13.90
2022-09-03T18:10:29.915Z,15.75
2022-09-03T18:14:02.016Z,8.48
2022-09-03T18:17:32.537Z,21.20
2022-09-03T18:21:24.289Z,12.10
2022-09-03T18:25:14.398Z,13.77
2022-09-03T18:29:00.056Z,14.73
2022-09-03T18:32:38.956Z,12.77
2022-09-03T18:36:18.333Z,11.43
2022-09-03T18:39:57.350Z,8.93
2022-09-03T18:43:43.826Z,7.65
2022-09-03T18:51:45.574Z,12.73
2022-09-03T18:55:37.606Z,14.18
2022-09-03T18:59:34.214Z,16.13
2022-09-03T19:03:42.826Z,14.10
2022-09-03T19:07:29.964Z,12.02
2022-09-03T19:11:15.594Z,12.25
2022-09-03T19:15:05.815Z,12.15
2022-09-03T19:19:14.198Z,14.38
2022-09-03T19:22:55.091Z,10.07
2022-09-03T19:26:41.913Z,10.65
2022-09-03T19:30:26.219Z,11.65
2022-09-03T19:34:16.300Z,12.05
2022-09-03T19:38:01.539Z,12.45
2022-09-03T19:41:46.045Z,12.45
2022-09-03T19:45:34.384Z,13.88
2022-09-03T19:49:22.662Z,16.77
2022-09-03T19:53:07.762Z,12.55
2022-09-03T19:56:47.603Z,11.43
2022-09-03T20:00:33.003Z,13.38
2022-09-03T20:04:15.624Z,14.90
2022-09-03T20:07:55.574Z,12.65
2022-09-03T20:11:20.070Z,10.10
2022-09-03T20:14:42.038Z,11.38
2022-09-03T20:18:14.787Z,9.48
2022-09-03T20:21:43.575Z,10.00
2022-09-03T20:25:29.262Z,10.30
2022-09-03T20:29:18.289Z,9.50
2022-09-03T20:33:00.715Z,11.88
2022-09-03T20:36:31.838Z,9.00
2022-09-03T20:40:21.582Z,7.75
2022-09-03T20:44:19.081Z,4.38
2022-09-03T20:47:57.195Z,3.92
2022-09-03T20:51:23.588Z,3.85
2022-09-03T20:54:53.191Z,2.88
2022-09-03T20:58:24.469Z,3.55
2022-09-03T21:01:55.096Z,3.88
2022-09-03T21:05:21.990Z,4.50
2022-09-03T21:09:07.517Z,3.40
2022-09-03T21:12:39.567Z,4.68
2022-09-03T21:16:20.106Z,4.10
2022-09-03T21:19:55.811Z,4.30
2022-09-03T21:23:23.746Z,2.15
2022-09-03T21:26:51.886Z,2.58
2022-09-03T21:30:18.647Z,2.83
2022-09-03T21:33:41.043Z,3.13
2022-09-03T21:37:05.571Z,5.88
2022-09-03T21:40:31.298Z,6.80
2022-09-03T21:43:59.653Z,2.72
2022-09-03T21:47:25.781Z,1.42
2022-09-03T21:50:54.123Z,2.42
2022-09-03T21:54:21.933Z,3.17
2022-09-03T21:57:55.148Z,1.80
2022-09-03T22:01:23.689Z,3.10
2022-09-03T22:04:46.945Z,5.38
2022-09-03T22:08:19.399Z,4.07
2022-09-03T22:11:48.312Z,5.28
2022-09-03T22:15:13.263Z,2.33
2022-09-03T22:18:37.867Z,2.63
2022-09-03T22:22:04.021Z,5.10
2022-09-03T22:25:35.007Z,4.63
2022-09-03T22:29:06.892Z,2.85
2022-09-03T22:32:38.109Z,2.58
2022-09-03T22:36:08.088Z,2.70
2022-09-03T22:39:37.494Z,2.75
2022-09-03T22:43:19.962Z,3.40
2022-09-03T22:46:53.091Z,2.55
2022-09-03T22:50:21.889Z,2.97
2022-09-03T22:53:58.900Z,2.40
2022-09-03T22:57:25.256Z,1.98
2022-09-03T23:00:51.066Z,3.63
2022-09-03T23:04:23.204Z,1.45
2022-09-03T23:07:53.785Z,2.28
2022-09-03T23:11:25.298Z,3.75
2022-09-03T23:14:54.411Z,5.05
2022-09-03T23:18:20.523Z,1.77
2022-09-03T23:21:48.310Z,2.40
2022-09-03T23:25:14.748Z,3.10
2022-09-03T23:28:39.538Z,9.45
2022-09-03T23:32:05.241Z,5.70
2022-09-03T23:35:30.105Z,1.70
2022-09-03T23:39:03.834Z,1.70
2022-09-03T23:42:37.002Z,2.78
2022-09-03T23:46:06.889Z,4.55
2022-09-03T23:49:40.528Z,2.70
2022-09-03T23:53:14.735Z,2.47
2022-09-03T23:57:03.302Z,3.08
